createdAt,value
2019-02-18T00:00:05.316Z,81.84
2019-02-18T00:01:09.537Z,81.94
2019-02-18T00:02:13.756Z,81.94
2019-02-18T00:03:17.986Z,82.01
2019-02-18T00:04:22.095Z,82.06
2019-02-18T00:05:26.313Z,82.02
2019-02-18T00:06:30.568Z,82.05
2019-02-18T00:07:34.757Z,82.02
2019-02-18T00:08:38.830Z,81.98
2019-02-18T00:09:43.074Z,81.94
2019-02-18T00:10:47.333Z,81.86
2019-02-18T00:11:51.548Z,81.78
2019-02-18T00:12:55.653Z,81.75
2019-02-18T00:13:59.886Z,81.76
2019-02-18T00:15:04.115Z,81.68
2019-02-18T00:16:08.229Z,81.13
2019-02-18T00:17:12.470Z,81.13
2019-02-18T00:18:16.656Z,81.15
2019-02-18T00:19:20.874Z,80.92
2019-02-18T00:20:25.044Z,81.17
2019-02-18T00:21:29.271Z,81.23
2019-02-18T00:22:33.387Z,81.05
2019-02-18T00:23:37.623Z,81.07
2019-02-18T00:24:41.757Z,81.31
2019-02-18T00:25:45.889Z,81.37
2019-02-18T00:26:50.136Z,81.52
2019-02-18T00:27:54.320Z,81.53
2019-02-18T00:28:58.437Z,81.63
2019-02-18T00:30:02.703Z,81.75
2019-02-18T00:31:06.921Z,81.88
2019-02-18T00:32:11.052Z,82.00
2019-02-18T00:33:15.281Z,82.04
2019-02-18T00:34:19.396Z,82.03
2019-02-18T00:35:23.624Z,82.04
2019-02-18T00:36:27.803Z,81.95
2019-02-18T00:37:32.013Z,81.92
2019-02-18T00:38:36.194Z,81.74
2019-02-18T00:39:40.401Z,81.63
2019-02-18T00:40:44.541Z,81.68
2019-02-18T00:41:49.416Z,81.63
2019-02-18T00:42:52.812Z,81.63
2019-02-18T00:43:56.926Z,81.60
2019-02-18T00:45:01.157Z,81.63
2019-02-18T00:46:05.331Z,81.63
2019-02-18T00:47:09.538Z,81.69
2019-02-18T00:48:13.729Z,81.75
2019-02-18T00:49:17.910Z,81.81
2019-02-18T00:50:21.995Z,81.60
2019-02-18T00:51:26.259Z,81.39
2019-02-18T00:52:31.684Z,81.41
2019-02-18T00:53:35.403Z,81.46
2019-02-18T00:54:39.538Z,81.58
2019-02-18T00:55:43.724Z,81.60
2019-02-18T00:56:47.918Z,81.77
2019-02-18T00:57:52.106Z,81.78
2019-02-18T00:58:56.210Z,81.86
2019-02-18T01:00:00.516Z,81.77
2019-02-18T01:01:04.662Z,81.81
2019-02-18T01:02:08.854Z,81.75
2019-02-18T01:03:13.078Z,81.69
2019-02-18T01:04:17.275Z,81.61
2019-02-18T01:05:21.432Z,81.47
2019-02-18T01:06:25.606Z,81.35
2019-02-18T01:07:34.688Z,81.41
2019-02-18T01:08:34.015Z,81.43
2019-02-18T01:09:38.101Z,81.52
2019-02-18T01:10:42.337Z,81.46
2019-02-18T01:11:46.416Z,81.22
2019-02-18T01:12:50.609Z,81.15
2019-02-18T01:13:54.868Z,81.14
2019-02-18T01:14:58.993Z,81.25
2019-02-18T01:16:03.245Z,81.20
2019-02-18T01:17:07.425Z,81.16
2019-02-18T01:18:11.612Z,81.11
2019-02-18T01:19:15.809Z,81.33
2019-02-18T01:20:19.871Z,81.30
2019-02-18T01:21:24.092Z,81.31
2019-02-18T01:22:28.287Z,81.42
2019-02-18T01:23:32.520Z,81.31
2019-02-18T01:24:36.627Z,81.38
2019-02-18T01:25:40.854Z,81.35
2019-02-18T01:26:44.919Z,81.37
2019-02-18T01:27:49.136Z,81.46
2019-02-18T01:28:53.368Z,81.43
2019-02-18T01:29:57.559Z,81.49
2019-02-18T01:31:01.750Z,81.40
2019-02-18T01:32:05.950Z,81.44
2019-02-18T01:33:10.164Z,81.38
2019-02-18T01:34:14.162Z,81.26
2019-02-18T01:35:18.456Z,81.29
2019-02-18T01:36:23.230Z,81.15
2019-02-18T01:37:26.775Z,81.15
2019-02-18T01:38:30.982Z,81.22
2019-02-18T01:39:35.047Z,81.24
2019-02-18T01:40:39.244Z,81.20
2019-02-18T01:41:43.462Z,81.12
2019-02-18T01:42:47.643Z,81.12
2019-02-18T01:43:51.701Z,81.28
2019-02-18T01:44:55.990Z,81.16
2019-02-18T01:46:00.067Z,81.13
2019-02-18T01:47:04.310Z,81.23
2019-02-18T01:48:08.521Z,82.20
2019-02-18T01:49:12.734Z,82.96
2019-02-18T01:50:16.808Z,83.16
2019-02-18T01:51:20.932Z,82.78
2019-02-18T01:52:25.241Z,82.34
2019-02-18T01:53:29.307Z,82.06
2019-02-18T01:54:33.440Z,81.89
2019-02-18T01:55:37.642Z,81.78
2019-02-18T01:56:41.815Z,81.70
2019-02-18T01:57:46.009Z,81.50
2019-02-18T01:58:50.217Z,81.45
2019-02-18T01:59:54.412Z,81.41
2019-02-18T02:00:59.392Z,81.46
2019-02-18T02:02:03.146Z,82.11
2019-02-18T02:03:07.272Z,82.53
2019-02-18T02:04:11.409Z,82.28
2019-02-18T02:05:15.573Z,82.12
2019-02-18T02:06:19.723Z,82.06
2019-02-18T02:07:23.967Z,81.79
2019-02-18T02:08:28.170Z,81.61
2019-02-18T02:09:32.359Z,81.47
2019-02-18T02:10:36.346Z,81.18
2019-02-18T02:11:40.560Z,80.95
2019-02-18T02:12:44.814Z,80.93
2019-02-18T02:13:48.948Z,81.04
2019-02-18T02:14:53.150Z,81.32
2019-02-18T02:15:57.211Z,81.31
2019-02-18T02:17:01.440Z,81.58
2019-02-18T02:18:05.667Z,82.09
2019-02-18T02:19:09.752Z,81.71
2019-02-18T02:20:13.998Z,81.49
2019-02-18T02:21:18.180Z,81.57
2019-02-18T02:22:22.356Z,81.66
2019-02-18T02:23:26.390Z,81.78
2019-02-18T02:24:30.666Z,81.83
2019-02-18T02:25:34.826Z,81.80
2019-02-18T02:26:39.008Z,81.70
2019-02-18T02:27:43.180Z,81.79
2019-02-18T02:28:47.251Z,81.75
2019-02-18T02:29:51.505Z,81.65
2019-02-18T02:32:04.672Z,81.47
2019-02-18T02:33:08.826Z,81.37
2019-02-18T02:34:12.890Z,81.41
2019-02-18T02:35:17.042Z,81.46
2019-02-18T02:36:21.288Z,81.49
2019-02-18T02:37:25.481Z,81.53
2019-02-18T02:38:29.617Z,81.48
2019-02-18T02:39:33.762Z,81.50
2019-02-18T02:40:37.934Z,81.59
2019-02-18T02:41:41.949Z,81.90
2019-02-18T02:42:46.241Z,81.89
2019-02-18T02:43:50.441Z,81.88
2019-02-18T02:44:54.710Z,82.04
2019-02-18T02:45:58.837Z,82.04
2019-02-18T02:47:03.023Z,81.80
2019-02-18T02:48:07.125Z,82.10
2019-02-18T02:49:11.278Z,82.48
2019-02-18T02:50:15.500Z,82.37
2019-02-18T02:51:19.578Z,82.37
2019-02-18T02:52:23.822Z,82.74
2019-02-18T02:53:28.013Z,82.95
2019-02-18T02:54:32.047Z,83.00
2019-02-18T02:55:36.325Z,82.89
2019-02-18T02:56:40.418Z,82.53
2019-02-18T02:57:44.655Z,82.29
2019-02-18T02:58:48.763Z,82.21
2019-02-18T02:59:53.024Z,82.20
2019-02-18T03:00:57.241Z,82.29
2019-02-18T03:02:01.361Z,82.13
2019-02-18T03:03:05.578Z,82.14
2019-02-18T03:04:09.754Z,82.10
2019-02-18T03:05:13.978Z,82.02
2019-02-18T03:06:18.186Z,82.00
2019-02-18T03:07:22.400Z,81.81
2019-02-18T03:08:26.474Z,81.72
2019-02-18T03:09:30.690Z,81.86
2019-02-18T03:10:34.905Z,81.87
2019-02-18T03:11:39.052Z,81.72
2019-02-18T03:12:43.138Z,81.79
2019-02-18T03:13:47.327Z,81.73
2019-02-18T03:14:51.517Z,81.88
2019-02-18T03:15:55.645Z,81.98
2019-02-18T03:16:59.778Z,82.06
2019-02-18T03:18:03.959Z,81.99
2019-02-18T03:19:08.142Z,81.97
2019-02-18T03:20:12.336Z,82.31
2019-02-18T03:21:16.418Z,82.42
2019-02-18T03:22:20.649Z,82.27
2019-02-18T03:23:24.817Z,82.20
2019-02-18T03:24:29.016Z,82.26
2019-02-18T03:25:33.169Z,82.22
2019-02-18T03:26:37.400Z,82.19
2019-02-18T03:27:41.520Z,82.15
2019-02-18T03:28:45.710Z,82.14
2019-02-18T03:29:49.820Z,82.15
2019-02-18T03:30:54.022Z,82.14
2019-02-18T03:31:58.167Z,82.22
2019-02-18T03:33:02.364Z,82.36
2019-02-18T03:34:06.481Z,82.44
2019-02-18T03:35:10.730Z,82.46
2019-02-18T03:36:14.861Z,82.28
2019-02-18T03:37:19.054Z,82.26
2019-02-18T03:38:31.222Z,82.34
2019-02-18T03:39:27.339Z,82.28
2019-02-18T03:40:31.467Z,82.31
2019-02-18T03:41:35.681Z,82.31
2019-02-18T03:42:39.865Z,82.22
2019-02-18T03:43:44.052Z,82.25
2019-02-18T03:44:48.118Z,82.22
2019-02-18T03:45:52.360Z,82.19
2019-02-18T03:46:56.453Z,82.19
2019-02-18T03:48:00.689Z,82.15
2019-02-18T03:49:04.867Z,82.10
2019-02-18T03:50:08.979Z,82.12
2019-02-18T03:51:13.139Z,82.11
2019-02-18T03:52:17.366Z,82.12
2019-02-18T03:53:21.450Z,82.14
2019-02-18T03:54:25.607Z,82.19
2019-02-18T03:55:29.737Z,82.09
2019-02-18T03:56:33.984Z,82.19
2019-02-18T03:57:38.181Z,82.19
2019-02-18T03:58:42.328Z,82.18
2019-02-18T03:59:46.425Z,82.21
2019-02-18T04:00:50.574Z,82.25
2019-02-18T04:01:54.689Z,82.23
2019-02-18T04:02:58.949Z,82.15
2019-02-18T04:04:03.097Z,82.15
2019-02-18T04:05:07.298Z,82.17
2019-02-18T04:06:11.487Z,82.12
2019-02-18T04:07:15.716Z,82.08
2019-02-18T04:08:19.807Z,82.07
2019-02-18T04:09:24.059Z,82.08
2019-02-18T04:10:28.224Z,82.09
2019-02-18T04:11:32.306Z,82.07
2019-02-18T04:12:36.435Z,82.13
2019-02-18T04:13:40.701Z,82.17
2019-02-18T04:14:44.919Z,82.17
2019-02-18T04:15:49.101Z,82.23
2019-02-18T04:16:53.277Z,82.21
2019-02-18T04:17:57.477Z,82.23
2019-02-18T04:19:01.648Z,82.31
2019-02-18T04:20:05.890Z,82.42
2019-02-18T04:21:09.969Z,82.47
2019-02-18T04:22:14.167Z,82.70
2019-02-18T04:23:18.335Z,82.80
2019-02-18T04:24:22.587Z,83.11
2019-02-18T04:25:26.612Z,82.99
2019-02-18T04:26:30.739Z,82.83
2019-02-18T04:27:34.950Z,82.69
2019-02-18T04:28:39.129Z,82.64
2019-02-18T04:29:43.194Z,82.74
2019-02-18T04:30:47.437Z,82.65
2019-02-18T04:31:51.616Z,82.77
2019-02-18T04:32:55.794Z,82.54
2019-02-18T04:33:59.961Z,82.42
2019-02-18T04:35:04.073Z,82.30
2019-02-18T04:36:08.288Z,82.40
2019-02-18T04:37:12.520Z,82.33
2019-02-18T04:38:16.680Z,82.27
2019-02-18T04:39:20.867Z,82.30
2019-02-18T04:40:25.059Z,82.22
2019-02-18T04:41:29.222Z,82.17
2019-02-18T04:42:33.435Z,82.13
2019-02-18T04:43:37.623Z,82.05
2019-02-18T04:44:41.802Z,82.10
2019-02-18T04:45:45.966Z,82.11
2019-02-18T04:46:50.071Z,82.03
2019-02-18T04:47:54.316Z,81.94
2019-02-18T04:48:58.510Z,81.93
2019-02-18T04:50:02.616Z,81.92
2019-02-18T04:51:06.854Z,81.91
2019-02-18T04:52:11.061Z,82.03
2019-02-18T04:53:15.267Z,82.02
2019-02-18T04:54:19.370Z,81.99
2019-02-18T04:55:23.587Z,82.00
2019-02-18T04:56:27.673Z,81.99
2019-02-18T04:57:31.910Z,82.07
2019-02-18T04:58:36.094Z,82.05
2019-02-18T04:59:40.163Z,82.05
2019-02-18T05:00:44.364Z,82.10
2019-02-18T05:01:48.515Z,82.09
2019-02-18T05:02:52.742Z,82.03
2019-02-18T05:03:56.823Z,81.98
2019-02-18T05:05:01.067Z,81.99
2019-02-18T05:06:05.231Z,82.02
2019-02-18T05:07:09.398Z,82.07
2019-02-18T05:08:13.509Z,82.14
2019-02-18T05:09:17.640Z,82.14
2019-02-18T05:10:21.847Z,82.13
2019-02-18T05:11:26.042Z,82.16
2019-02-18T05:12:30.156Z,82.15
2019-02-18T05:13:34.322Z,82.00
2019-02-18T05:14:38.552Z,81.92
2019-02-18T05:15:42.726Z,81.83
2019-02-18T05:16:46.820Z,81.91
2019-02-18T05:17:51.069Z,81.96
2019-02-18T05:18:55.319Z,82.13
2019-02-18T05:19:59.443Z,82.31
2019-02-18T05:21:03.542Z,82.33
2019-02-18T05:22:07.787Z,82.43
2019-02-18T05:23:11.953Z,82.43
2019-02-18T05:24:16.100Z,82.16
2019-02-18T05:25:20.191Z,81.97
2019-02-18T05:26:24.403Z,81.90
2019-02-18T05:27:33.381Z,81.70
2019-02-18T05:28:32.777Z,81.50
2019-02-18T05:29:36.885Z,82.16
2019-02-18T05:30:40.990Z,82.21
2019-02-18T05:31:45.161Z,81.81
2019-02-18T05:32:49.326Z,81.86
2019-02-18T05:33:53.580Z,81.91
2019-02-18T05:34:57.737Z,82.08
2019-02-18T05:36:01.827Z,82.09
2019-02-18T05:37:06.062Z,82.18
2019-02-18T05:38:10.288Z,82.19
2019-02-18T05:39:18.125Z,82.18
2019-02-18T05:40:18.548Z,82.18
2019-02-18T05:41:23.593Z,82.12
2019-02-18T05:42:27.439Z,82.11
2019-02-18T05:43:31.564Z,82.04
2019-02-18T05:44:35.777Z,82.09
2019-02-18T05:45:39.838Z,82.19
2019-02-18T05:46:43.985Z,82.39
2019-02-18T05:47:48.239Z,82.53
2019-02-18T05:48:52.479Z,82.54
2019-02-18T05:49:56.454Z,82.61
2019-02-18T05:51:00.728Z,82.74
2019-02-18T05:52:04.912Z,83.16
2019-02-18T05:53:09.094Z,83.07
2019-02-18T05:54:13.281Z,83.09
2019-02-18T05:55:17.319Z,82.98
2019-02-18T05:56:21.476Z,83.00
2019-02-18T05:57:25.688Z,82.92
2019-02-18T05:58:29.813Z,82.87
2019-02-18T05:59:34.080Z,83.00
2019-02-18T06:00:38.169Z,82.85
2019-02-18T06:01:42.332Z,82.80
2019-02-18T06:02:46.573Z,82.65
2019-02-18T06:03:50.614Z,82.59
2019-02-18T06:04:54.845Z,82.46
2019-02-18T06:05:59.069Z,82.45
2019-02-18T06:07:03.171Z,82.68
2019-02-18T06:08:07.345Z,82.68
2019-02-18T06:09:11.740Z,82.62
2019-02-18T06:10:17.167Z,82.55
2019-02-18T06:11:19.924Z,82.62
2019-02-18T06:12:24.116Z,82.60
2019-02-18T06:13:28.175Z,82.75
2019-02-18T06:14:32.356Z,82.79
2019-02-18T06:15:36.582Z,82.91
2019-02-18T06:16:40.783Z,82.86
2019-02-18T06:17:44.858Z,82.84
2019-02-18T06:18:49.096Z,82.93
2019-02-18T06:19:53.321Z,82.79
2019-02-18T06:20:57.421Z,82.80
2019-02-18T06:22:01.594Z,82.68
2019-02-18T06:23:05.655Z,82.73
2019-02-18T06:24:09.869Z,82.66
2019-02-18T06:25:14.143Z,82.68
2019-02-18T06:26:18.262Z,82.68
2019-02-18T06:27:22.336Z,82.78
2019-02-18T06:28:26.615Z,82.73
2019-02-18T06:29:30.805Z,82.79
2019-02-18T06:30:34.985Z,82.90
2019-02-18T06:31:39.180Z,82.79
2019-02-18T06:32:43.412Z,82.68
2019-02-18T06:33:47.529Z,82.69
2019-02-18T06:34:51.612Z,82.67
2019-02-18T06:35:55.852Z,82.61
2019-02-18T06:37:00.058Z,82.62
2019-02-18T06:38:04.241Z,82.62
2019-02-18T06:39:08.424Z,82.60
2019-02-18T06:40:12.653Z,82.51
2019-02-18T06:41:16.816Z,82.59
2019-02-18T06:42:21.019Z,82.58
2019-02-18T06:43:25.220Z,82.52
2019-02-18T06:44:29.421Z,82.46
2019-02-18T06:45:33.570Z,82.51
2019-02-18T06:46:37.818Z,82.53
2019-02-18T06:47:41.828Z,82.56
2019-02-18T06:48:46.021Z,82.66
2019-02-18T06:49:50.175Z,82.74
2019-02-18T06:50:54.429Z,82.84
2019-02-18T06:51:58.497Z,82.77
2019-02-18T06:53:02.714Z,82.74
2019-02-18T06:54:06.905Z,82.73
2019-02-18T06:55:11.039Z,82.66
2019-02-18T06:56:15.221Z,82.64
2019-02-18T06:57:19.296Z,82.59
2019-02-18T06:58:23.554Z,82.57
2019-02-18T06:59:27.701Z,82.56
2019-02-18T07:00:31.881Z,82.60
2019-02-18T07:01:36.034Z,82.54
2019-02-18T07:02:40.244Z,82.62
2019-02-18T07:03:44.434Z,82.63
2019-02-18T07:04:48.607Z,82.65
2019-02-18T07:05:52.820Z,82.67
2019-02-18T07:06:56.825Z,82.62
2019-02-18T07:08:00.993Z,82.67
2019-02-18T07:09:05.209Z,82.63
2019-02-18T07:10:09.310Z,82.66
2019-02-18T07:11:13.534Z,82.59
2019-02-18T07:12:17.712Z,82.63
2019-02-18T07:13:21.847Z,82.64
2019-02-18T07:14:26.073Z,82.56
2019-02-18T07:15:30.266Z,82.62
2019-02-18T07:16:34.480Z,82.52
2019-02-18T07:17:38.584Z,82.47
2019-02-18T07:18:42.827Z,82.52
2019-02-18T07:19:47.014Z,82.46
2019-02-18T07:20:51.129Z,82.46
2019-02-18T07:21:55.367Z,82.45
2019-02-18T07:22:59.434Z,82.54
2019-02-18T07:24:03.664Z,82.50
2019-02-18T07:25:07.822Z,82.45
2019-02-18T07:26:11.986Z,82.48
2019-02-18T07:27:16.078Z,82.53
2019-02-18T07:28:20.328Z,82.64
2019-02-18T07:29:24.512Z,82.62
2019-02-18T07:30:28.730Z,82.59
2019-02-18T07:31:32.791Z,82.61
2019-02-18T07:32:36.904Z,82.71
2019-02-18T07:33:41.054Z,82.76
2019-02-18T07:34:45.299Z,82.81
2019-02-18T07:35:49.490Z,82.88
2019-02-18T07:36:53.602Z,82.80
2019-02-18T07:37:57.820Z,82.75
2019-02-18T07:39:02.014Z,82.82
2019-02-18T07:40:06.131Z,82.74
2019-02-18T07:41:10.360Z,82.86
2019-02-18T07:42:14.546Z,82.75
2019-02-18T07:43:18.726Z,82.71
2019-02-18T07:44:22.754Z,82.64
2019-02-18T07:45:27.028Z,82.60
2019-02-18T07:46:31.181Z,82.56
2019-02-18T07:47:35.417Z,82.58
2019-02-18T07:48:39.613Z,82.56
2019-02-18T07:49:43.694Z,82.68
2019-02-18T07:50:47.839Z,82.66
2019-02-18T07:51:52.110Z,82.57
2019-02-18T07:52:56.302Z,82.51
2019-02-18T07:54:00.378Z,82.41
2019-02-18T07:55:04.584Z,82.43
2019-02-18T07:56:08.721Z,82.42
2019-02-18T07:57:12.867Z,82.50
2019-02-18T07:58:17.107Z,82.53
2019-02-18T07:59:21.193Z,82.43
2019-02-18T08:00:25.447Z,82.51
2019-02-18T08:01:29.654Z,82.58
2019-02-18T08:02:33.814Z,82.63
2019-02-18T08:03:37.912Z,82.48
2019-02-18T08:04:42.134Z,82.40
2019-02-18T08:05:46.316Z,82.33
2019-02-18T08:06:50.473Z,82.27
2019-02-18T08:07:54.580Z,82.24
2019-02-18T08:08:58.633Z,82.21
2019-02-18T08:10:11.701Z,82.23
2019-02-18T08:11:06.888Z,82.15
2019-02-18T08:12:11.195Z,82.22
2019-02-18T08:13:15.349Z,82.17
2019-02-18T08:14:19.459Z,82.17
2019-02-18T08:15:23.723Z,82.14
2019-02-18T08:16:27.876Z,82.06
2019-02-18T08:17:32.097Z,82.10
2019-02-18T08:18:36.198Z,82.15
2019-02-18T08:19:40.433Z,82.12
2019-02-18T08:20:44.530Z,82.16
2019-02-18T08:21:48.683Z,82.17
2019-02-18T08:22:52.853Z,82.16
2019-02-18T08:23:59.977Z,82.06
2019-02-18T08:25:01.224Z,82.09
2019-02-18T08:26:05.412Z,82.01
2019-02-18T08:27:09.597Z,82.01
2019-02-18T08:28:13.686Z,82.09
2019-02-18T08:29:17.954Z,81.98
2019-02-18T08:30:22.158Z,82.03
2019-02-18T08:31:26.332Z,82.05
2019-02-18T08:32:30.554Z,82.04
2019-02-18T08:33:34.731Z,81.98
2019-02-18T08:34:38.962Z,81.89
2019-02-18T08:35:43.048Z,81.87
2019-02-18T08:36:47.297Z,82.04
2019-02-18T08:37:51.520Z,81.99
2019-02-18T08:38:55.672Z,81.89
2019-02-18T08:39:59.879Z,81.88
2019-02-18T08:41:03.971Z,81.84
2019-02-18T08:42:08.204Z,81.83
2019-02-18T08:43:12.424Z,81.76
2019-02-18T08:44:16.608Z,81.82
2019-02-18T08:45:20.816Z,81.77
2019-02-18T08:46:24.983Z,81.79
2019-02-18T08:47:29.101Z,81.75
2019-02-18T08:48:33.358Z,81.75
2019-02-18T08:49:37.560Z,81.72
2019-02-18T08:50:41.723Z,81.74
2019-02-18T08:51:48.944Z,81.69
2019-02-18T08:52:52.219Z,81.66
2019-02-18T08:53:56.420Z,81.64
2019-02-18T08:55:00.637Z,81.61
2019-02-18T08:56:04.748Z,81.60
2019-02-18T08:57:08.942Z,81.56
2019-02-18T08:58:13.153Z,81.61
2019-02-18T08:59:17.303Z,81.52
2019-02-18T09:00:21.477Z,81.52
2019-02-18T09:01:25.700Z,81.62
2019-02-18T09:02:29.934Z,81.56
2019-02-18T09:03:34.152Z,81.49
2019-02-18T09:04:38.278Z,81.49
2019-02-18T09:05:42.499Z,81.48
2019-02-18T09:06:46.625Z,81.45
2019-02-18T09:07:50.901Z,81.42
2019-02-18T09:08:55.040Z,81.44
2019-02-18T09:09:59.273Z,81.40
2019-02-18T09:11:03.509Z,81.36
2019-02-18T09:12:07.732Z,81.30
2019-02-18T09:13:11.896Z,81.26
2019-02-18T09:14:16.123Z,81.25
2019-02-18T09:15:20.184Z,81.24
2019-02-18T09:16:24.471Z,81.23
2019-02-18T09:17:28.700Z,81.31
2019-02-18T09:18:32.910Z,81.29
2019-02-18T09:19:37.135Z,81.30
2019-02-18T09:20:41.326Z,81.21
2019-02-18T09:21:45.551Z,81.21
2019-02-18T09:22:49.733Z,81.22
2019-02-18T09:23:53.967Z,81.13
2019-02-18T09:24:58.165Z,81.11
2019-02-18T09:26:02.451Z,81.08
2019-02-18T09:27:06.523Z,80.99
2019-02-18T09:28:10.764Z,80.97
2019-02-18T09:29:14.942Z,80.93
2019-02-18T09:30:19.186Z,80.94
2019-02-18T09:31:23.354Z,80.98
2019-02-18T09:32:27.474Z,80.95
2019-02-18T09:33:31.730Z,80.88
2019-02-18T09:34:35.936Z,80.84
2019-02-18T09:35:40.120Z,80.78
2019-02-18T09:36:44.298Z,80.65
2019-02-18T09:37:48.456Z,80.65
2019-02-18T09:38:52.766Z,80.71
2019-02-18T09:39:56.839Z,80.74
2019-02-18T09:41:01.040Z,80.80
2019-02-18T09:42:05.284Z,80.71
2019-02-18T09:43:09.515Z,80.71
2019-02-18T09:44:13.747Z,80.67
2019-02-18T09:45:18.003Z,80.52
2019-02-18T09:46:22.106Z,80.60
2019-02-18T09:47:26.350Z,80.55
2019-02-18T09:48:30.540Z,80.56
2019-02-18T09:49:34.834Z,80.57
2019-02-18T09:50:39.045Z,80.51
2019-02-18T09:51:43.280Z,80.50
2019-02-18T09:52:47.509Z,80.46
2019-02-18T09:53:51.810Z,80.39
2019-02-18T09:54:55.987Z,80.40
2019-02-18T09:56:00.201Z,80.36
2019-02-18T09:57:04.400Z,80.34
2019-02-18T09:58:08.622Z,80.29
2019-02-18T09:59:12.857Z,80.25
2019-02-18T10:00:17.128Z,80.10
2019-02-18T10:01:21.316Z,80.07
2019-02-18T10:02:25.561Z,80.12
2019-02-18T10:03:32.137Z,80.15
2019-02-18T10:04:34.036Z,80.15
2019-02-18T10:05:38.267Z,80.10
2019-02-18T10:06:42.439Z,80.04
2019-02-18T10:07:46.728Z,80.05
2019-02-18T10:08:50.860Z,79.85
2019-02-18T10:09:55.084Z,79.77
2019-02-18T10:10:59.351Z,79.74
2019-02-18T10:12:03.402Z,79.85
2019-02-18T10:13:07.853Z,79.69
2019-02-18T10:14:11.869Z,79.75
2019-02-18T10:15:16.142Z,79.67
2019-02-18T10:16:20.343Z,79.64
2019-02-18T10:17:24.542Z,79.68
2019-02-18T10:18:28.787Z,79.67
2019-02-18T10:19:32.992Z,79.71
2019-02-18T10:20:37.268Z,79.72
2019-02-18T10:21:41.471Z,79.61
2019-02-18T10:22:45.756Z,79.48
2019-02-18T10:23:49.867Z,79.52
2019-02-18T10:24:54.063Z,79.50
2019-02-18T10:25:58.321Z,79.50
2019-02-18T10:27:02.584Z,79.37
2019-02-18T10:28:06.817Z,79.37
2019-02-18T10:29:11.049Z,79.23
2019-02-18T10:30:15.284Z,79.19
2019-02-18T10:31:19.518Z,78.95
2019-02-18T10:32:23.764Z,78.69
2019-02-18T10:33:28.022Z,78.83
2019-02-18T10:34:32.192Z,78.76
2019-02-18T10:35:36.499Z,78.65
2019-02-18T10:36:40.671Z,78.10
2019-02-18T10:37:54.635Z,78.50
2019-02-18T10:38:49.148Z,78.24
2019-02-18T10:39:53.471Z,78.27
2019-02-18T10:41:06.575Z,78.38
2019-02-18T10:42:01.977Z,78.44
2019-02-18T10:43:06.109Z,78.39
2019-02-18T10:44:10.332Z,78.31
2019-02-18T10:45:14.644Z,78.00
2019-02-18T10:46:18.882Z,78.13
2019-02-18T10:47:23.131Z,77.42
2019-02-18T10:48:27.405Z,77.73
2019-02-18T10:49:31.650Z,77.38
2019-02-18T10:50:35.929Z,77.61
2019-02-18T10:51:40.067Z,77.54
2019-02-18T10:52:44.370Z,77.70
2019-02-18T10:53:48.634Z,77.46
2019-02-18T10:54:52.890Z,77.22
2019-02-18T10:55:57.169Z,77.66
2019-02-18T10:57:01.342Z,77.19
2019-02-18T10:58:05.537Z,77.22
2019-02-18T10:59:09.794Z,77.15
2019-02-18T11:00:14.074Z,77.08
2019-02-18T11:01:18.341Z,77.34
2019-02-18T11:02:22.568Z,77.00
2019-02-18T11:03:26.788Z,77.02
2019-02-18T11:04:31.101Z,77.10
2019-02-18T11:05:35.434Z,77.04
2019-02-18T11:06:39.650Z,77.17
2019-02-18T11:07:43.906Z,77.22
2019-02-18T11:08:48.178Z,77.20
2019-02-18T11:09:52.427Z,76.23
2019-02-18T11:10:56.688Z,76.92
2019-02-18T11:12:00.839Z,77.01
2019-02-18T11:13:05.101Z,76.94
2019-02-18T11:14:09.323Z,76.61
2019-02-18T11:15:13.648Z,76.84
2019-02-18T11:16:17.911Z,76.75
2019-02-18T11:17:22.122Z,76.56
2019-02-18T11:18:26.288Z,76.68
2019-02-18T11:19:30.631Z,76.45
2019-02-18T11:20:34.905Z,76.04
2019-02-18T11:21:39.187Z,75.56
2019-02-18T11:22:43.411Z,75.89
2019-02-18T11:23:47.593Z,75.21
2019-02-18T11:24:51.911Z,75.51
2019-02-18T11:26:02.234Z,75.70
2019-02-18T11:27:05.120Z,75.04
2019-02-18T11:28:09.373Z,74.51
2019-02-18T11:29:13.576Z,74.93
2019-02-18T11:30:17.884Z,75.41
2019-02-18T11:31:22.199Z,74.65
2019-02-18T11:32:26.492Z,74.95
2019-02-18T11:33:30.796Z,75.00
2019-02-18T11:34:35.027Z,74.66
2019-02-18T11:35:39.331Z,72.85
2019-02-18T11:36:43.654Z,73.61
2019-02-18T11:37:47.948Z,74.57
2019-02-18T11:38:52.163Z,73.64
2019-02-18T11:39:56.487Z,73.84
2019-02-18T11:41:00.694Z,73.47
2019-02-18T11:42:05.065Z,73.32
2019-02-18T11:43:09.243Z,73.41
2019-02-18T11:44:13.425Z,71.27
2019-02-18T11:45:17.792Z,71.95
2019-02-18T11:46:22.111Z,71.77
2019-02-18T11:47:26.418Z,72.60
2019-02-18T11:48:30.626Z,72.92
2019-02-18T11:49:34.930Z,72.75
2019-02-18T11:50:39.202Z,72.40
2019-02-18T11:51:43.510Z,72.10
2019-02-18T11:52:47.809Z,70.75
2019-02-18T11:53:52.014Z,71.86
2019-02-18T11:54:56.311Z,71.42
2019-02-18T11:56:00.596Z,71.67
2019-02-18T11:57:04.866Z,71.42
2019-02-18T11:58:09.156Z,71.76
2019-02-18T11:59:23.710Z,70.47
2019-02-18T12:00:17.776Z,70.58
2019-02-18T12:01:22.019Z,71.02
2019-02-18T12:02:26.319Z,67.42
2019-02-18T12:03:30.589Z,68.74
2019-02-18T12:04:34.878Z,70.66
2019-02-18T12:05:39.145Z,70.67
2019-02-18T12:06:44.601Z,70.90
2019-02-18T12:07:47.738Z,70.31
2019-02-18T12:08:52.104Z,69.66
2019-02-18T12:09:56.385Z,68.50
2019-02-18T12:11:00.708Z,68.02
2019-02-18T12:12:05.001Z,67.93
2019-02-18T12:13:09.219Z,68.84
2019-02-18T12:14:13.532Z,69.15
2019-02-18T12:15:17.831Z,69.60
2019-02-18T12:16:22.166Z,68.20
2019-02-18T12:17:26.507Z,69.23
2019-02-18T12:18:30.763Z,69.46
2019-02-18T12:19:35.129Z,65.39
2019-02-18T12:20:39.438Z,65.92
2019-02-18T12:21:43.713Z,67.52
2019-02-18T12:22:47.960Z,68.32
2019-02-18T12:23:52.314Z,66.13
2019-02-18T12:24:56.632Z,67.83
2019-02-18T12:26:00.871Z,67.84
2019-02-18T12:27:05.145Z,63.62
2019-02-18T12:28:09.530Z,66.98
2019-02-18T12:29:13.839Z,64.96
2019-02-18T12:30:18.173Z,65.34
2019-02-18T12:31:22.580Z,66.17
2019-02-18T12:32:26.869Z,66.55
2019-02-18T12:33:31.206Z,65.28
2019-02-18T12:34:35.450Z,66.23
2019-02-18T12:35:39.755Z,63.37
2019-02-18T12:36:44.067Z,65.60
2019-02-18T12:37:55.448Z,63.63
2019-02-18T12:38:52.685Z,63.48
2019-02-18T12:39:56.963Z,65.09
2019-02-18T12:41:01.247Z,62.73
2019-02-18T12:42:05.530Z,61.58
2019-02-18T12:43:09.908Z,64.62
2019-02-18T12:44:14.240Z,64.23
2019-02-18T12:45:18.549Z,59.68
2019-02-18T12:46:22.863Z,59.81
2019-02-18T12:47:27.130Z,61.73
2019-02-18T12:48:31.501Z,60.03
2019-02-18T12:49:35.828Z,59.99
2019-02-18T12:50:40.072Z,60.87
2019-02-18T12:51:44.407Z,58.61
2019-02-18T12:52:48.706Z,59.29
2019-02-18T12:53:53.033Z,57.97
2019-02-18T12:55:00.151Z,61.29
2019-02-18T12:56:01.621Z,59.78
2019-02-18T12:57:05.907Z,59.72
2019-02-18T12:58:10.216Z,58.19
2019-02-18T12:59:14.604Z,60.55
2019-02-18T13:00:18.890Z,59.58
2019-02-18T13:01:23.267Z,61.22
2019-02-18T13:02:27.628Z,60.05
2019-02-18T13:03:32.008Z,62.10
2019-02-18T13:04:36.278Z,56.14
2019-02-18T13:05:40.580Z,59.20
2019-02-18T13:06:44.879Z,59.73
2019-02-18T13:07:52.280Z,61.38
2019-02-18T13:08:55.744Z,61.79
2019-02-18T13:10:00.020Z,61.56
2019-02-18T13:11:04.344Z,61.69
2019-02-18T13:12:08.657Z,56.44
2019-02-18T13:13:12.989Z,58.54
2019-02-18T13:14:17.314Z,54.66
2019-02-18T13:15:21.589Z,59.01
2019-02-18T13:16:26.024Z,59.58
2019-02-18T13:17:30.360Z,0.00
2019-02-18T13:18:34.615Z,61.56
2019-02-18T13:19:38.922Z,59.99
2019-02-18T13:20:43.217Z,58.80
2019-02-18T13:21:47.596Z,59.65
2019-02-18T13:22:51.888Z,58.51
2019-02-18T13:23:56.227Z,58.63
2019-02-18T13:25:00.583Z,59.07
2019-02-18T13:26:04.869Z,59.58
2019-02-18T13:27:09.169Z,57.87
2019-02-18T13:28:13.554Z,60.65
2019-02-18T13:29:17.847Z,56.75
2019-02-18T13:30:22.238Z,55.96
2019-02-18T13:31:26.522Z,57.51
2019-02-18T13:32:30.807Z,58.93
2019-02-18T13:33:35.191Z,57.06
2019-02-18T13:34:39.463Z,54.61
2019-02-18T13:35:43.871Z,55.00
2019-02-18T13:36:48.223Z,55.29
2019-02-18T13:37:52.444Z,56.13
2019-02-18T13:38:56.831Z,58.66
2019-02-18T13:40:01.186Z,59.30
2019-02-18T13:41:05.439Z,58.88
2019-02-18T13:42:09.751Z,60.10
2019-02-18T13:43:14.087Z,58.41
2019-02-18T13:44:18.494Z,56.91
2019-02-18T13:45:22.839Z,56.74
2019-02-18T13:46:27.100Z,58.62
2019-02-18T13:47:31.390Z,58.22